Flight Track Log - Related Links

Times and Time Zones

All times are in EDT time to prevent confusion due to time zone crossing. See the DAL129 flight status page for this flight to view local times or setup timezone preferences in your user account.

Time Position Orientation Groundspeed Altitude Reporting Facility
EDT Latitude Longitude Course Direction KTS MPH feet Rate Location/Type
Mon 05:05:40 PM 33.6500 -84.3833 73° East 193 222 2,400  Level Atlanta TRACON
Mon 05:06:34 PM 33.6667 -84.3167 23° Northeast 243 280 3,600 1,944 Climbing Atlanta TRACON
Mon 05:07:28 PM 33.7333 -84.2833 348° North 279 321 5,900 2,579 Climbing Atlanta TRACON
Mon 05:08:35 PM 33.8000 -84.3000 273° West 295 339 8,800 1,875 Climbing Atlanta TRACON
Mon 05:10:40 PM 33.8100 -84.5314 270° West 326 375 11,900 1,686 Climbing Atlanta Center
Mon 05:11:40 PM 33.8094 -84.6589 270° West 376 433 14,000 2,000 Climbing Atlanta Center
Mon 05:12:40 PM 33.8086 -84.7914 267° West 389 448 15,900 1,900 Climbing Atlanta Center
Mon 05:13:40 PM 33.8036 -84.9264 262° West 408 470 17,800 1,800 Climbing Atlanta Center
Mon 05:14:40 PM 33.7878 -85.0636 262° West 408 470 19,500 1,500 Climbing Atlanta Center
Mon 05:15:40 PM 33.7722 -85.1883 276° West 413 475 20,800 1,388 Climbing Atlanta Center
Mon 05:16:41 PM 33.7853 -85.3311 287° West 421 484 22,300 1,200 Climbing Atlanta Center
Mon 05:21:40 PM 33.9697 -86.0578 289° West 458 527 28,000 1,150 Climbing Atlanta Center
Mon 05:22:41 PM 34.0131 -86.2067 288° West 466 536 29,200 1,300 Climbing Atlanta Center
Mon 05:23:40 PM 34.0542 -86.3556 289° West 466 536 30,600 1,210 Climbing Atlanta Center
Mon 05:24:40 PM 34.0953 -86.5022 288° West 466 536 31,600 954 Climbing Atlanta Center
Mon 05:26:11 PM 34.1525 -86.7128 289° West 469 540 33,000 954 Climbing Memphis Center
Mon 05:27:11 PM 34.1989 -86.8742 288° West 469 540 34,000 500 Climbing Memphis Center
Mon 05:28:11 PM 34.2383 -87.0206 289° West 460 529 34,000  Level Memphis Center
Mon 05:29:10 PM 34.2750 -87.1475 288° West 460 529 34,000  Level Memphis Center
Mon 05:30:10 PM 34.3211 -87.3217 290° West 470 541 34,000  Level Memphis Center
Mon 05:31:10 PM 34.3644 -87.4661 287° West 469 540 34,000  Level Memphis Center
Mon 05:32:11 PM 34.4033 -87.6183 289° West 474 545 34,000  Level Memphis Center
Mon 05:33:11 PM 34.4439 -87.7656 289° West 469 540 34,000  Level Memphis Center
Mon 05:34:10 PM 34.4844 -87.9106 287° West 469 540 34,000  Level Memphis Center
Mon 05:35:11 PM 34.5228 -88.0606 288° West 464 534 34,000  Level Memphis Center
Mon 05:36:11 PM 34.5631 -88.2158 288° West 468 539 34,000  Level Memphis Center
Mon 05:37:11 PM 34.6011 -88.3614 288° West 468 539 34,000  Level Memphis Center
Mon 05:38:10 PM 34.6322 -88.4792 288° West 468 539 34,000  Level Memphis Center
Mon 05:39:11 PM 34.6742 -88.6375 287° West 454 522 34,000  Level Memphis Center
Mon 05:40:11 PM 34.7114 -88.7856 288° West 459 528 34,000  Level Memphis Center
Mon 05:41:11 PM 34.7508 -88.9342 288° West 459 528 34,000  Level Memphis Center
Mon 05:42:10 PM 34.7900 -89.0850 287° West 459 528 34,000  Level Memphis Center
Mon 05:43:10 PM 34.8269 -89.2339 288° West 459 528 34,000  Level Memphis Center
Mon 05:44:11 PM 34.8678 -89.3878 288° West 474 545 34,000  Level Memphis Center
Mon 05:45:11 PM 34.9108 -89.5519 288° West 474 545 34,000  Level Memphis Center
Mon 05:46:11 PM 34.9450 -89.6806 287° West 482 555 34,000  Level Memphis Center
Mon 05:47:11 PM 34.9897 -89.8578 286° West 493 567 34,000  Level Memphis Center
Mon 05:48:11 PM 35.0256 -90.0097 291° West 488 562 34,000  Level Memphis Center
Mon 05:49:11 PM 35.0719 -90.1567 291° West 474 545 34,000  Level Memphis Center
Mon 05:50:11 PM 35.1200 -90.3064 291° West 474 545 34,000  Level Memphis Center
Mon 05:51:10 PM 35.1700 -90.4689 291° West 467 537 34,000  Level Memphis Center
Mon 05:52:10 PM 35.2178 -90.6189 291° West 472 543 34,000  Level Memphis Center
Mon 05:53:11 PM 35.2633 -90.7639 289° West 467 537 34,000  Level Memphis Center
Mon 05:54:11 PM 35.3067 -90.9142 292° West 473 544 34,000  Level Memphis Center
Mon 05:55:10 PM 35.3558 -91.0622 288° West 468 539 34,000  Level Memphis Center
Mon 05:56:11 PM 35.3925 -91.1975 293° West 463 533 34,000  Level Memphis Center
Mon 05:57:10 PM 35.4478 -91.3611 289° West 469 540 34,000  Level Memphis Center
Mon 05:58:11 PM 35.4842 -91.4942 290° West 469 540 34,000  Level Memphis Center
Mon 05:59:11 PM 35.5306 -91.6481 291° West 469 540 34,000  Level Memphis Center
Mon 06:00:11 PM 35.5769 -91.7967 290° West 469 540 34,000  Level Memphis Center
Mon 06:01:11 PM 35.6231 -91.9533 291° West 474 545 34,000  Level Memphis Center
Mon 06:02:11 PM 35.6689 -92.1025 289° West 474 545 34,000  Level Memphis Center
Mon 06:03:11 PM 35.7125 -92.2567 291° West 474 545 34,000  Level Memphis Center
Mon 06:04:11 PM 35.7603 -92.4114 290° West 474 545 34,000  Level Memphis Center
Mon 06:05:11 PM 35.8056 -92.5633 289° West 474 545 34,000  Level Memphis Center
Mon 06:06:11 PM 35.8486 -92.7208 290° West 474 545 34,000  Level Memphis Center
Mon 06:07:11 PM 35.8936 -92.8733 290° West 474 545 34,000  Level Memphis Center
Mon 06:08:10 PM 35.9442 -93.0467 290° West 474 545 34,000  Level Memphis Center
Mon 06:09:11 PM 35.9886 -93.1994 289° West 480 552 34,000  Level Memphis Center
Mon 06:10:11 PM 36.0308 -93.3550 290° West 480 552 34,000  Level Memphis Center
Mon 06:11:11 PM 36.0750 -93.5081 289° West 480 552 34,000  Level Memphis Center
Mon 06:12:11 PM 36.1169 -93.6611 290° West 480 552 34,000  Level Memphis Center
Mon 06:13:11 PM 36.1628 -93.8172 289° West 480 552 34,000  Level Memphis Center
Mon 06:14:11 PM 36.2064 -93.9733 291° West 480 552 34,000  Level Memphis Center
Mon 06:15:11 PM 36.2519 -94.1247 299° West 480 552 34,000  Level Memphis Center
Mon 06:16:47 PM 36.3547 -94.3564 300° West 475 547 34,000  Level Kansas City Center
Mon 06:17:47 PM 36.4194 -94.4983 300° West 475 547 34,000  Level Kansas City Center
Mon 06:18:47 PM 36.4842 -94.6403 299° West 475 547 34,000  Level Kansas City Center
Mon 06:19:47 PM 36.5486 -94.7853 299° West 475 547 34,000  Level Kansas City Center
Mon 06:20:47 PM 36.6128 -94.9278 299° West 475 547 34,000  Level Kansas City Center
Mon 06:21:47 PM 36.6769 -95.0706 299° West 475 547 34,000  Level Kansas City Center
Mon 06:22:47 PM 36.7408 -95.2161 298° West 481 554 34,000  Level Kansas City Center
Mon 06:23:47 PM 36.8025 -95.3594 299° West 481 554 34,000  Level Kansas City Center
Mon 06:24:47 PM 36.8661 -95.5056 299° West 481 554 34,000  Level Kansas City Center
Mon 06:25:47 PM 36.9294 -95.6492 298° West 481 554 34,000  Level Kansas City Center
Mon 06:26:47 PM 36.9883 -95.7906 299° West 476 548 34,000  Level Kansas City Center
Mon 06:27:47 PM 37.0514 -95.9347 298° West 476 548 34,000  Level Kansas City Center
Mon 06:28:47 PM 37.1122 -96.0764 298° West 476 548 34,000  Level Kansas City Center
Mon 06:29:47 PM 37.1728 -96.2211 299° West 471 542 34,000  Level Kansas City Center
Mon 06:30:47 PM 37.2333 -96.3608 297° West 471 542 34,000  Level Kansas City Center
Mon 06:31:47 PM 37.2856 -96.4900 298° West 463 533 34,000  Level Kansas City Center
Mon 06:32:47 PM 37.3456 -96.6325 299° West 463 533 34,000  Level Kansas City Center
Mon 06:33:47 PM 37.4078 -96.7756 297° West 463 533 34,000  Level Kansas City Center
Mon 06:34:47 PM 37.4675 -96.9211 299° West 463 533 34,000  Level Kansas City Center
Mon 06:35:47 PM 37.5292 -97.0619 297° West 458 527 34,000  Level Kansas City Center
Mon 06:36:47 PM 37.5864 -97.2056 298° West 458 527 34,000  Level Kansas City Center
Mon 06:37:47 PM 37.6458 -97.3492 297° West 458 527 34,000  Level Kansas City Center
Mon 06:38:47 PM 37.7047 -97.4931 299° West 458 527 34,000  Level Kansas City Center
Mon 06:39:47 PM 37.7736 -97.6536 298° West 471 542 34,000  Level Kansas City Center
Mon 06:40:47 PM 37.8325 -97.7953 298° West 463 533 34,000  Level Kansas City Center
Mon 06:41:47 PM 37.8931 -97.9375 298° West 456 525 34,000  Level Kansas City Center
Mon 06:42:47 PM 37.9517 -98.0772 298° West 456 525 34,000  Level Kansas City Center
Mon 06:43:47 PM 38.0136 -98.2278 299° West 462 532 34,000  Level Kansas City Center
Mon 06:44:47 PM 38.0739 -98.3678 299° West 462 532 34,000  Level Kansas City Center
Mon 06:45:47 PM 38.1342 -98.5056 299° West 462 532 34,000  Level Kansas City Center
Mon 06:46:47 PM 38.1961 -98.6464 298° West 462 532 34,000  Level Kansas City Center
Mon 06:47:47 PM 38.2556 -98.7872 298° West 462 532 34,000  Level Kansas City Center
Mon 06:48:47 PM 38.3153 -98.9283 298° West 457 526 34,000  Level Kansas City Center
Mon 06:49:47 PM 38.3744 -99.0697 299° West 457 526 34,000  Level Kansas City Center
Mon 06:50:47 PM 38.4378 -99.2139 299° West 457 526 34,000  Level Kansas City Center
Mon 06:51:47 PM 38.4989 -99.3558 298° West 457 526 34,000  Level Kansas City Center
Mon 06:53:39 PM 38.6092 -99.6228 305° West 460 529 34,000  Level Denver Center
Mon 06:54:41 PM 38.6789 -99.7489 307° West 453 521 34,000  Level Denver Center
Mon 06:55:43 PM 38.7514 -99.8725 308° West 456 525 34,000  Level Denver Center
Mon 06:56:45 PM 38.8383 -100.0164 311° West 459 528 34,000  Level Denver Center
Mon 06:57:47 PM 38.9172 -100.1342 310° West 457 526 34,000  Level Denver Center
Mon 06:58:49 PM 39.0067 -100.2719 310° West 455 524 34,000  Level Denver Center
Mon 06:59:51 PM 39.0836 -100.3911 310° West 454 522 34,000  Level Denver Center
Mon 07:00:54 PM 39.1739 -100.5322 309° West 454 522 34,000  Level Denver Center
Mon 07:01:56 PM 39.2519 -100.6547 309° West 457 526 34,000  Level Denver Center
Mon 07:02:58 PM 39.3425 -100.7978 310° West 459 528 34,000  Level Denver Center
Mon 07:04:00 PM 39.4208 -100.9203 309° West 460 529 34,000  Level Denver Center
Mon 07:05:02 PM 39.5125 -101.0653 309° West 464 534 34,000  Level Denver Center
Mon 07:06:04 PM 39.5908 -101.1889 309° West 463 533 34,000  Level Denver Center
Mon 07:07:06 PM 39.6817 -101.3336 309° West 462 532 34,000  Level Denver Center
Mon 07:08:08 PM 39.7597 -101.4583 309° West 463 533 34,000  Level Denver Center
Mon 07:09:10 PM 39.8508 -101.6039 309° West 463 533 34,000  Level Denver Center
Mon 07:10:12 PM 39.9283 -101.7272 309° West 460 529 34,000  Level Denver Center
Mon 07:11:14 PM 40.0053 -101.8536 309° West 462 532 34,000  Level Denver Center
Mon 07:12:16 PM 40.0950 -101.9981 309° West 459 528 34,000  Level Denver Center
Mon 07:13:18 PM 40.1711 -102.1231 309° West 459 528 34,000  Level Denver Center
Mon 07:14:20 PM 40.2594 -102.2669 309° West 455 524 34,000  Level Denver Center
Mon 07:15:22 PM 40.3353 -102.3914 309° West 455 524 34,000  Level Denver Center
Mon 07:16:24 PM 40.4239 -102.5375 308° West 456 525 34,000  Level Denver Center
Mon 07:17:26 PM 40.5006 -102.6658 309° West 455 524 34,000  Level Denver Center
Mon 07:18:28 PM 40.5800 -102.7969 308° West 455 524 34,000  Level Denver Center
Mon 07:19:30 PM 40.6586 -102.9283 308° West 454 522 34,000  Level Denver Center
Mon 07:20:32 PM 40.7369 -103.0592 308° West 453 521 34,000  Level Denver Center
Mon 07:21:34 PM 40.8133 -103.1881 308° West 446 513 34,000  Level Denver Center
Mon 07:22:36 PM 40.9019 -103.3389 308° West 443 510 34,000  Level Denver Center
Mon 07:23:38 PM 40.9772 -103.4672 308° West 440 506 34,000  Level Denver Center
Mon 07:24:40 PM 41.0514 -103.5925 308° West 441 507 34,000  Level Denver Center
Mon 07:25:42 PM 41.1347 -103.7356 307° West 440 506 34,000  Level Denver Center
Mon 07:26:44 PM 41.2061 -103.8603 308° West 442 509 34,000  Level Denver Center
Mon 07:27:46 PM 41.2892 -104.0028 307° West 439 505 34,000  Level Denver Center
Mon 07:28:48 PM 41.3597 -104.1269 308° West 439 505 34,000  Level Denver Center
Mon 07:29:51 PM 41.4311 -104.2511 307° West 440 506 34,000  Level Denver Center
Mon 07:30:53 PM 41.5139 -104.3961 307° West 439 505 34,000  Level Denver Center
Mon 07:31:55 PM 41.5850 -104.5214 307° West 441 507 34,000  Level Denver Center
Mon 07:32:57 PM 41.6669 -104.6664 307° West 438 504 34,000  Level Denver Center
Mon 07:33:59 PM 41.7367 -104.7903 307° West 436 502 34,000  Level Denver Center
Mon 07:35:01 PM 41.8181 -104.9356 307° West 435 501 34,000  Level Denver Center
Mon 07:36:03 PM 41.8869 -105.0594 307° West 434 499 34,000  Level Denver Center
Mon 07:37:05 PM 41.9672 -105.2044 307° West 432 497 34,000  Level Denver Center
Mon 07:38:08 PM 42.0367 -105.3281 306° West 432 497 34,000  Level Denver Center
Mon 07:39:10 PM 42.1158 -105.4750 307° West 432 497 34,000  Level Denver Center
Mon 07:40:12 PM 42.1850 -105.5994 307° West 433 498 34,000  Level Denver Center
Mon 07:41:14 PM 42.2658 -105.7467 306° West 435 501 34,000  Level Denver Center
Mon 07:42:16 PM 42.3336 -105.8722 306° West 433 498 34,000  Level Denver Center
Mon 07:43:18 PM 42.4011 -105.9975 306° West 431 496 34,000  Level Denver Center
Mon 07:44:20 PM 42.4783 -106.1408 306° West 423 487 34,000  Level Denver Center
Mon 07:45:23 PM 42.5436 -106.2633 306° West 419 482 34,000  Level Denver Center
Mon 07:46:25 PM 42.6200 -106.4047 306° West 417 480 34,000  Level Denver Center
Mon 07:47:27 PM 42.6842 -106.5261 306° West 414 476 34,000  Level Denver Center
Mon 07:48:29 PM 42.7600 -106.6694 306° West 417 480 34,000  Level Denver Center
Mon 07:49:31 PM 42.8253 -106.7925 305° West 418 481 34,000  Level Denver Center
Mon 07:50:25 PM 42.8886 -106.9175 306° West 418 481 34,000  Level Salt Lake Center
Mon 07:51:28 PM 42.9594 -107.0514 305° West 415 478 34,000  Level Salt Lake Center
Mon 07:52:30 PM 43.0228 -107.1733 304° West 413 475 34,000  Level Salt Lake Center
Mon 07:53:32 PM 43.0953 -107.3183 305° West 413 475 34,000  Level Salt Lake Center
Mon 07:54:34 PM 43.1575 -107.4386 306° West 408 470 34,000  Level Salt Lake Center
Mon 07:55:37 PM 43.2317 -107.5767 305° West 405 466 34,000  Level Salt Lake Center
Mon 07:56:39 PM 43.2931 -107.6975 305° West 403 464 34,000  Level Salt Lake Center
Mon 07:57:41 PM 43.3628 -107.8367 305° West 398 458 34,000  Level Salt Lake Center
Mon 07:58:43 PM 43.4239 -107.9569 305° West 399 459 34,000  Level Salt Lake Center
Mon 07:59:46 PM 43.4956 -108.0994 305° West 403 464 34,000  Level Salt Lake Center
Mon 08:00:48 PM 43.5578 -108.2242 305° West 408 470 34,000  Level Salt Lake Center
Mon 08:01:50 PM 43.6311 -108.3706 304° West 412 474 34,000  Level Salt Lake Center
Mon 08:02:53 PM 43.6928 -108.4953 305° West 412 474 34,000  Level Salt Lake Center
Mon 08:03:55 PM 43.7644 -108.6389 304° West 407 468 34,000  Level Salt Lake Center
Mon 08:04:57 PM 43.8250 -108.7633 304° West 406 467 34,000  Level Salt Lake Center
Mon 08:06:00 PM 43.8956 -108.9061 304° West 403 464 34,000  Level Salt Lake Center
Mon 08:07:02 PM 43.9550 -109.0289 304° West 401 461 34,000  Level Salt Lake Center
Mon 08:08:04 PM 44.0256 -109.1733 304° West 403 464 34,000  Level Salt Lake Center
Mon 08:09:07 PM 44.0858 -109.2969 304° West 403 464 34,000  Level Salt Lake Center
Mon 08:10:09 PM 44.1450 -109.4208 304° West 402 463 34,000  Level Salt Lake Center
Mon 08:11:12 PM 44.2169 -109.5692 304° West 394 453 34,000  Level Salt Lake Center
Mon 08:12:14 PM 44.2750 -109.6900 303° West 393 452 34,000  Level Salt Lake Center
Mon 08:13:16 PM 44.3408 -109.8303 304° West 389 448 34,000  Level Salt Lake Center
Mon 08:14:18 PM 44.3964 -109.9472 303° West 382 440 34,000  Level Salt Lake Center
Mon 08:15:21 PM 44.4600 -110.0825 304° West 375 432 34,000  Level Salt Lake Center
Mon 08:16:23 PM 44.5153 -110.1994 303° West 376 433 34,000  Level Salt Lake Center
Mon 08:17:25 PM 44.5800 -110.3381 302° West 378 435 34,000  Level Salt Lake Center
Mon 08:18:27 PM 44.6344 -110.4589 303° West 383 441 34,000  Level Salt Lake Center
Mon 08:19:30 PM 44.6986 -110.5981 302° West 382 440 34,000  Level Salt Lake Center
Mon 08:20:32 PM 44.7533 -110.7192 303° West 384 442 34,000  Level Salt Lake Center
Mon 08:21:34 PM 44.8183 -110.8594 303° West 385 443 34,000  Level Salt Lake Center
Mon 08:22:36 PM 44.8728 -110.9775 303° West 381 438 34,000  Level Salt Lake Center
Mon 08:23:39 PM 44.9339 -111.1119 303° West 371 427 34,000  Level Salt Lake Center
Mon 08:24:41 PM 44.9867 -111.2283 303° West 370 426 34,000  Level Salt Lake Center
Mon 08:25:43 PM 45.0489 -111.3664 303° West 373 429 34,000  Level Salt Lake Center
Mon 08:26:45 PM 45.1028 -111.4856 302° West 376 433 34,000  Level Salt Lake Center
Mon 08:27:48 PM 45.1669 -111.6300 302° West 378 435 34,000  Level Salt Lake Center
Mon 08:28:50 PM 45.2250 -111.7606 302° West 385 443 34,000  Level Salt Lake Center
Mon 08:29:52 PM 45.2842 -111.8950 302° West 394 453 34,000  Level Salt Lake Center
Mon 08:30:54 PM 45.3439 -112.0308 302° West 400 460 34,000  Level Salt Lake Center
Mon 08:31:57 PM 45.4033 -112.1672 302° West 403 464 34,000  Level Salt Lake Center
Mon 08:32:59 PM 45.4628 -112.3053 302° West 405 466 34,000  Level Salt Lake Center
Mon 08:34:01 PM 45.5219 -112.4425 302° West 406 467 34,000  Level Salt Lake Center
Mon 08:35:03 PM 45.5919 -112.6039 301° West 400 460 34,000  Level Salt Lake Center
Mon 08:36:06 PM 45.6497 -112.7392 301° West 399 459 34,000  Level Salt Lake Center
Mon 08:37:08 PM 45.7061 -112.8744 301° West 396 456 34,000  Level Salt Lake Center
Mon 08:38:10 PM 45.7644 -113.0128 301° West 402 463 34,000  Level Salt Lake Center
Mon 08:39:12 PM 45.8247 -113.1547 301° West 413 475 34,000  Level Salt Lake Center
Mon 08:40:14 PM 45.8850 -113.2969 301° West 414 476 34,000  Level Salt Lake Center
Mon 08:41:17 PM 45.9558 -113.4700 303° West 417 480 34,000  Level Salt Lake Center
Mon 08:42:19 PM 46.0208 -113.6139 300° West 424 488 34,000  Level Salt Lake Center
Mon 08:43:21 PM 46.0781 -113.7542 301° West 420 483 34,000  Level Salt Lake Center
Mon 08:44:23 PM 46.1383 -113.9000 301° West 422 486 34,000  Level Salt Lake Center
Mon 08:45:25 PM 46.1978 -114.0442 300° West 420 483 34,000  Level Salt Lake Center
Mon 08:46:28 PM 46.2567 -114.1911 300° West 422 486 34,000  Level Salt Lake Center
Mon 08:47:30 PM 46.3261 -114.3636 300° West 417 480 34,000  Level Salt Lake Center
Mon 08:48:32 PM 46.3833 -114.5058 299° West 413 475 34,000  Level Salt Lake Center
Mon 08:49:26 PM 46.4292 -114.6236 300° West 414 476 34,000  Level Seattle Center
Mon 08:50:27 PM 46.4878 -114.7708 300° West 419 482 34,000  Level Seattle Center
Mon 08:51:28 PM 46.5467 -114.9178 300° West 421 484 34,000  Level Seattle Center
Mon 08:52:29 PM 46.6081 -115.0747 300° West 424 488 34,000  Level Seattle Center
Mon 08:53:30 PM 46.6669 -115.2250 300° West 426 490 34,000  Level Seattle Center
Mon 08:54:31 PM 46.7353 -115.3989 299° West 430 495 34,000  Level Seattle Center
Mon 08:55:32 PM 46.7847 -115.5283 300° West 430 495 34,000  Level Seattle Center
Mon 08:56:33 PM 46.8558 -115.7114 299° West 432 497 34,000  Level Seattle Center
Mon 08:57:34 PM 46.9139 -115.8642 299° West 432 497 34,000  Level Seattle Center
Mon 08:58:35 PM 46.9722 -116.0178 299° West 432 497 34,000  Level Seattle Center
Mon 08:59:36 PM 47.0300 -116.1717 299° West 432 497 34,000  Level Seattle Center
Mon 09:00:37 PM 47.0883 -116.3244 299° West 431 496 34,000  Level Seattle Center
Mon 09:01:38 PM 47.1447 -116.4767 299° West 427 491 34,000  Level Seattle Center
Mon 09:02:39 PM 47.2014 -116.6297 299° West 426 490 34,000  Level Seattle Center
Mon 09:03:40 PM 47.2586 -116.7831 298° West 427 491 34,000  Level Seattle Center
Mon 09:04:41 PM 47.3156 -116.9386 298° West 428 493 34,000  Level Seattle Center
Mon 09:05:42 PM 47.3728 -117.0947 298° West 429 494 34,000  Level Seattle Center
Mon 09:07:44 PM 47.4869 -117.4111 298° West 430 495 34,000  Level Seattle Center
Mon 09:08:45 PM 47.5436 -117.5689 283° West 431 496 34,000  Level Seattle Center
Mon 09:09:46 PM 47.5703 -117.7383 281° West 429 494 34,000  Level Seattle Center
Mon 09:10:47 PM 47.5922 -117.9075 278° West 421 484 34,000  Level Seattle Center
Mon 09:11:48 PM 47.6092 -118.0789 277° West 422 486 34,000  Level Seattle Center
Mon 09:12:49 PM 47.6233 -118.2514 277° West 423 487 34,000  Level Seattle Center
Mon 09:13:50 PM 47.6414 -118.4614 278° West 427 491 34,000  Level Seattle Center
Mon 09:14:51 PM 47.6575 -118.6344 277° West 426 490 34,000 -148 Level Seattle Center
Mon 09:15:52 PM 47.6725 -118.8072 277° West 425 489 33,700 -492 Descending Seattle Center
Mon 09:16:53 PM 47.6875 -118.9786 277° West 423 487 33,000 -738 Descending Seattle Center
Mon 09:17:54 PM 47.7008 -119.1486 276° West 418 481 32,200 -787 Descending Seattle Center
Mon 09:18:55 PM 47.7122 -119.3081 278° West 389 448 31,400 -787 Descending Seattle Center
Mon 09:19:56 PM 47.7267 -119.4583 277° West 369 425 30,600 -787 Descending Seattle Center
Mon 09:20:57 PM 47.7381 -119.6058 277° West 360 414 29,800 -738 Descending Seattle Center
Mon 09:21:58 PM 47.7511 -119.7683 277° West 390 449 29,100 -738 Descending Seattle Center
Mon 09:22:59 PM 47.7639 -119.9356 276° West 405 466 28,300 -738 Descending Seattle Center
Mon 09:24:00 PM 47.7761 -120.0975 276° West 400 460 27,600 -590 Descending Seattle Center
Mon 09:25:01 PM 47.7881 -120.2606 276° West 398 458 27,100 -639 Descending Seattle Center
Mon 09:26:02 PM 47.8014 -120.4508 276° West 389 448 26,300 -738 Descending Seattle Center
Mon 09:27:03 PM 47.8131 -120.6089 276° West 386 444 25,600 -1,426 Descending Seattle Center
Mon 09:28:04 PM 47.8242 -120.7653 276° West 382 440 23,400 -2,115 Descending Seattle Center
Mon 09:29:05 PM 47.8356 -120.9186 277° West 378 435 21,300 -2,016 Descending Seattle Center
Mon 09:30:06 PM 47.8469 -121.0658 275° West 367 422 19,300 -1,869 Descending Seattle Center
Mon 09:31:07 PM 47.8553 -121.2097 275° West 357 411 17,500 -1,785 Descending Seattle Center
Mon 09:32:07 PM 47.8642 -121.3492 275° West 346 398 15,700 -1,785 Descending Seattle Center
Mon 09:33:08 PM 47.8719 -121.4858 276° West 338 389 13,900 -1,623 Descending Seattle Center
Mon 09:34:09 PM 47.8806 -121.6181 253° West 329 379 12,400 -934 Descending Seattle Center
Mon 09:35:10 PM 47.8528 -121.7511 239° Southwest 299 344 12,000 -689 Descending Seattle Center
Mon 09:36:11 PM 47.8128 -121.8497 247° West 286 329 11,000 -1,131 Descending Seattle Center
Mon 09:37:12 PM 47.7828 -121.9542 249° West 278 320 9,700 -1,328 Descending Seattle Center
Mon 09:38:13 PM 47.7542 -122.0633 249° West 271 312 8,300 -1,385 Descending Seattle Center
Mon 09:39:09 PM 47.7297 -122.1569 250° West 266 306 7,000 -1,463 Descending Seattle Center
Mon 09:40:16 PM 47.7011 -122.2717 204° Southwest 261 300 5,300 -1,381 Descending Seattle Center
Mon 09:41:15 PM 47.6400 -122.3114 179° South 251 289 4,100 -1,252 Descending Seattle Center
Mon 09:42:11 PM 47.5842 -122.3103 180° South 219 252 2,900 -1,128 Descending Seattle Center
Mon 09:43:12 PM 47.5308 -122.3100 182° South 191 220 1,900 -931 Descending Seattle Center
Mon 09:44:07 PM 47.4914 -122.3122 180° South 146 168 1,100 -709 Descending Seattle Center
Mon 09:45:19 PM 47.4492 -122.3119 180° South 139 160 400 -583 Descending Seattle Center

Login

Don't have an account? Register now (free) for customized features, flight alerts, and more!